Terminal Aerodrome Forecast
Issued by NWS

Home | Current Version | Previous Version | Text Only | Print | Product List | Glossary On
Versions: 1 2 3 4 5 6 7 8 9 10 11 12 13 14 15 16 17 18 19 20 21 22
000
FTUS46 KSEW 291500 AAB
TAFSEA
TAF AMD
KSEA 291508Z 2915/3018 18005KT P6SM SCT090 BKN250
     FM291700 23006KT P6SM SCT250
     FM292200 27006KT P6SM SCT250
     FM300000 30008KT P6SM SCT250
     FM300400 29005KT P6SM SKC
     FM301200 VRB03KT P6SM SCT003=

USA.gov is the U.S. government's official web portal to all federal, state and local government web resources and services.